sensor_id;sensor_type;location;lat;lon;timestamp;temperature;humidity
59067;DHT22;44854;50.838;4.438;2023-01-19T06:20:57;2.60;99.90
59067;DHT22;44854;50.838;4.438;2023-01-19T06:23:24;2.60;99.90
59067;DHT22;44854;50.838;4.438;2023-01-19T06:25:50;2.60;99.90
59067;DHT22;44854;50.838;4.438;2023-01-19T06:28:16;2.60;99.90
59067;DHT22;44854;50.838;4.438;2023-01-19T06:30:41;2.60;99.90
59067;DHT22;44854;50.838;4.438;2023-01-19T06:33:07;2.50;99.90
59067;DHT22;44854;50.838;4.438;2023-01-19T06:35:32;2.50;99.90
59067;DHT22;44854;50.838;4.438;2023-01-19T06:37:58;2.50;99.90
59067;DHT22;44854;50.838;4.438;2023-01-19T06:40:23;2.70;99.90
59067;DHT22;44854;50.838;4.438;2023-01-19T06:42:49;2.50;99.90
59067;DHT22;44854;50.838;4.438;2023-01-19T06:45:14;2.60;99.90
59067;DHT22;44854;50.838;4.438;2023-01-19T06:47:40;2.60;99.90
59067;DHT22;44854;50.838;4.438;2023-01-19T06:50:06;2.50;99.90
59067;DHT22;44854;50.838;4.438;2023-01-19T06:52:32;2.60;99.90
59067;DHT22;44854;50.838;4.438;2023-01-19T06:54:57;2.60;99.90
59067;DHT22;44854;50.838;4.438;2023-01-19T06:57:23;2.70;99.90
59067;DHT22;44854;50.838;4.438;2023-01-19T06:59:50;2.80;99.90
59067;DHT22;44854;50.838;4.438;2023-01-19T07:02:15;2.90;99.90
59067;DHT22;44854;50.838;4.438;2023-01-19T07:04:44;2.80;99.90
59067;DHT22;44854;50.838;4.438;2023-01-19T07:07:09;3.10;99.90
59067;DHT22;44854;50.838;4.438;2023-01-19T07:09:35;3.10;99.90
59067;DHT22;44854;50.838;4.438;2023-01-19T07:12:01;3.00;99.90
59067;DHT22;44854;50.838;4.438;2023-01-19T07:14:26;3.10;99.90
59067;DHT22;44854;50.838;4.438;2023-01-19T07:16:57;3.10;99.90
59067;DHT22;44854;50.838;4.438;2023-01-19T07:19:23;3.00;99.90
59067;DHT22;44854;50.838;4.438;2023-01-19T07:21:48;3.00;99.90
59067;DHT22;44854;50.838;4.438;2023-01-19T07:24:14;3.00;99.90
59067;DHT22;44854;50.838;4.438;2023-01-19T07:26:40;2.90;99.90
59067;DHT22;44854;50.838;4.438;2023-01-19T07:29:05;2.90;99.90
59067;DHT22;44854;50.838;4.438;2023-01-19T07:31:33;2.90;99.90
59067;DHT22;44854;50.838;4.438;2023-01-19T07:33:59;2.90;99.90
59067;DHT22;44854;50.838;4.438;2023-01-19T07:36:24;2.90;99.90
59067;DHT22;44854;50.838;4.438;2023-01-19T07:38:50;2.80;99.90
59067;DHT22;44854;50.838;4.438;2023-01-19T07:41:15;2.90;99.90
59067;DHT22;44854;50.838;4.438;2023-01-19T07:43:41;2.90;99.90
59067;DHT22;44854;50.838;4.438;2023-01-19T07:46:06;2.80;99.90
59067;DHT22;44854;50.838;4.438;2023-01-19T07:48:32;2.90;99.90
59067;DHT22;44854;50.838;4.438;2023-01-19T07:50:59;3.00;99.90
59067;DHT22;44854;50.838;4.438;2023-01-19T07:53:25;3.00;99.90
59067;DHT22;44854;50.838;4.438;2023-01-19T07:55:56;3.00;99.90
59067;DHT22;44854;50.838;4.438;2023-01-19T07:58:22;3.00;99.90
59067;DHT22;44854;50.838;4.438;2023-01-19T08:00:48;3.00;99.90
59067;DHT22;44854;50.838;4.438;2023-01-19T08:03:14;3.00;99.90
59067;DHT22;44854;50.838;4.438;2023-01-19T08:05:40;3.00;99.90
59067;DHT22;44854;50.838;4.438;2023-01-19T08:08:06;3.00;99.90
59067;DHT22;44854;50.838;4.438;2023-01-19T08:10:31;2.80;99.90
59067;DHT22;44854;50.838;4.438;2023-01-19T08:12:58;2.90;99.90
59067;DHT22;44854;50.838;4.438;2023-01-19T08:15:24;3.00;99.90
59067;DHT22;44854;50.838;4.438;2023-01-19T08:17:56;3.00;99.90
59067;DHT22;44854;50.838;4.438;2023-01-19T08:20:22;3.00;99.90
59067;DHT22;44854;50.838;4.438;2023-01-19T08:22:48;3.10;99.90
59067;DHT22;44854;50.838;4.438;2023-01-19T08:25:14;3.00;99.90
59067;DHT22;44854;50.838;4.438;2023-01-19T08:27:40;3.00;99.90
59067;DHT22;44854;50.838;4.438;2023-01-19T08:30:06;3.10;99.90
59067;DHT22;44854;50.838;4.438;2023-01-19T08:32:31;3.10;99.90
59067;DHT22;44854;50.838;4.438;2023-01-19T08:34:57;3.10;99.90
59067;DHT22;44854;50.838;4.438;2023-01-19T08:37:22;3.00;99.90
59067;DHT22;44854;50.838;4.438;2023-01-19T08:39:49;3.20;99.90
59067;DHT22;44854;50.838;4.438;2023-01-19T08:42:14;3.10;99.90
59067;DHT22;44854;50.838;4.438;2023-01-19T08:44:40;3.20;99.90
59067;DHT22;44854;50.838;4.438;2023-01-19T08:47:05;3.20;99.90
59067;DHT22;44854;50.838;4.438;2023-01-19T08:49:32;3.30;99.90
59067;DHT22;44854;50.838;4.438;2023-01-19T08:51:58;3.20;99.90
59067;DHT22;44854;50.838;4.438;2023-01-19T08:54:23;3.10;99.90
59067;DHT22;44854;50.838;4.438;2023-01-19T08:56:49;3.10;99.90
59067;DHT22;44854;50.838;4.438;2023-01-19T08:59:14;3.20;99.90
59067;DHT22;44854;50.838;4.438;2023-01-19T09:01:41;3.10;99.90
59067;DHT22;44854;50.838;4.438;2023-01-19T09:04:06;3.20;99.90
59067;DHT22;44854;50.838;4.438;2023-01-19T09:06:32;3.20;99.90
59067;DHT22;44854;50.838;4.438;2023-01-19T09:08:58;3.30;99.90
59067;DHT22;44854;50.838;4.438;2023-01-19T09:11:24;3.20;99.90
59067;DHT22;44854;50.838;4.438;2023-01-19T09:13:49;3.20;99.90
59067;DHT22;44854;50.838;4.438;2023-01-19T09:16:15;3.30;99.90
59067;DHT22;44854;50.838;4.438;2023-01-19T09:18:40;3.40;99.90
59067;DHT22;44854;50.838;4.438;2023-01-19T09:21:06;3.40;99.90
59067;DHT22;44854;50.838;4.438;2023-01-19T09:23:33;3.40;99.90
59067;DHT22;44854;50.838;4.438;2023-01-19T09:26:02;3.40;99.90
59067;DHT22;44854;50.838;4.438;2023-01-19T09:28:28;3.30;99.90
59067;DHT22;44854;50.838;4.438;2023-01-19T09:30:54;3.40;99.90
59067;DHT22;44854;50.838;4.438;2023-01-19T09:33:20;3.40;99.90
59067;DHT22;44854;50.838;4.438;2023-01-19T09:35:46;3.60;99.90
59067;DHT22;44854;50.838;4.438;2023-01-19T09:38:12;3.40;99.90
59067;DHT22;44854;50.838;4.438;2023-01-19T09:40:41;3.50;99.90
59067;DHT22;44854;50.838;4.438;2023-01-19T09:45:40;3.50;99.90
59067;DHT22;44854;50.838;4.438;2023-01-19T09:48:22;3.50;99.90
59067;DHT22;44854;50.838;4.438;2023-01-19T09:50:50;3.40;99.90
59067;DHT22;44854;50.838;4.438;2023-01-19T09:56:01;3.50;99.90
59067;DHT22;44854;50.838;4.438;2023-01-19T09:58:27;3.60;99.90
59067;DHT22;44854;50.838;4.438;2023-01-19T10:00:57;3.60;99.90
59067;DHT22;44854;50.838;4.438;2023-01-19T10:03:24;3.70;99.90
59067;DHT22;44854;50.838;4.438;2023-01-19T10:06:03;3.70;99.90
59067;DHT22;44854;50.838;4.438;2023-01-19T10:11:08;3.50;99.90
59067;DHT22;44854;50.838;4.438;2023-01-19T10:13:47;3.50;99.90
59067;DHT22;44854;50.838;4.438;2023-01-19T10:16:17;3.50;99.90
59067;DHT22;44854;50.838;4.438;2023-01-19T10:18:47;3.50;99.90
59067;DHT22;44854;50.838;4.438;2023-01-19T10:21:20;3.60;99.90
59067;DHT22;44854;50.838;4.438;2023-01-19T10:26:32;3.80;99.90
59067;DHT22;44854;50.838;4.438;2023-01-19T10:29:02;3.60;99.90
59067;DHT22;44854;50.838;4.438;2023-01-19T10:31:29;3.50;99.90
59067;DHT22;44854;50.838;4.438;2023-01-19T10:33:56;3.30;99.90
59067;DHT22;44854;50.838;4.438;2023-01-19T10:36:35;3.40;99.90
59067;DHT22;44854;50.838;4.438;2023-01-19T10:39:02;3.40;99.90
59067;DHT22;44854;50.838;4.438;2023-01-19T10:41:30;3.50;99.90
59067;DHT22;44854;50.838;4.438;2023-01-19T10:44:00;3.50;99.90
59067;DHT22;44854;50.838;4.438;2023-01-19T10:46:37;3.80;99.90
59067;DHT22;44854;50.838;4.438;2023-01-19T10:49:03;3.70;99.90
59067;DHT22;44854;50.838;4.438;2023-01-19T10:51:29;3.70;99.90
59067;DHT22;44854;50.838;4.438;2023-01-19T10:53:56;3.60;99.90
59067;DHT22;44854;50.838;4.438;2023-01-19T10:56:23;3.60;99.90
59067;DHT22;44854;50.838;4.438;2023-01-19T10:58:48;3.60;99.90
59067;DHT22;44854;50.838;4.438;2023-01-19T11:03:40;3.80;99.90
59067;DHT22;44854;50.838;4.438;2023-01-19T11:08:42;3.90;99.90
59067;DHT22;44854;50.838;4.438;2023-01-19T11:11:09;3.90;99.90
59067;DHT22;44854;50.838;4.438;2023-01-19T11:13:37;3.80;99.90
59067;DHT22;44854;50.838;4.438;2023-01-19T11:16:04;3.70;99.90
59067;DHT22;44854;50.838;4.438;2023-01-19T11:18:31;3.60;99.90
59067;DHT22;44854;50.838;4.438;2023-01-19T11:20:59;3.60;99.90
59067;DHT22;44854;50.838;4.438;2023-01-19T11:25:52;3.80;99.90
59067;DHT22;44854;50.838;4.438;2023-01-19T11:28:35;3.80;99.90
59067;DHT22;44854;50.838;4.438;2023-01-19T11:33:49;3.90;99.90
59067;DHT22;44854;50.838;4.438;2023-01-19T11:36:16;3.90;99.90
59067;DHT22;44854;50.838;4.438;2023-01-19T11:38:46;4.10;99.90
59067;DHT22;44854;50.838;4.438;2023-01-19T11:41:35;4.00;99.90
59067;DHT22;44854;50.838;4.438;2023-01-19T11:44:34;4.00;99.90
59067;DHT22;44854;50.838;4.438;2023-01-19T11:46:52;4.00;99.90
59067;DHT22;44854;50.838;4.438;2023-01-19T11:49:55;4.00;99.90
59067;DHT22;44854;50.838;4.438;2023-01-19T11:54:57;3.90;99.90
59067;DHT22;44854;50.838;4.438;2023-01-19T11:57:25;4.00;99.90
59067;DHT22;44854;50.838;4.438;2023-01-19T11:59:51;3.90;99.90
59067;DHT22;44854;50.838;4.438;2023-01-19T12:02:41;3.90;99.90
59067;DHT22;44854;50.838;4.438;2023-01-19T12:05:08;3.90;99.90
59067;DHT22;44854;50.838;4.438;2023-01-19T12:07:36;4.00;99.90
59067;DHT22;44854;50.838;4.438;2023-01-19T12:10:11;4.00;99.90
59067;DHT22;44854;50.838;4.438;2023-01-19T12:12:40;4.00;99.90
59067;DHT22;44854;50.838;4.438;2023-01-19T12:17:50;4.10;99.90
59067;DHT22;44854;50.838;4.438;2023-01-19T12:22:43;4.30;99.90
59067;DHT22;44854;50.838;4.438;2023-01-19T12:27:43;4.40;99.90
59067;DHT22;44854;50.838;4.438;2023-01-19T12:30:15;4.30;99.90
59067;DHT22;44854;50.838;4.438;2023-01-19T12:32:41;4.20;99.90
59067;DHT22;44854;50.838;4.438;2023-01-19T12:35:51;4.40;99.90
59067;DHT22;44854;50.838;4.438;2023-01-19T12:37:53;4.50;99.90
59067;DHT22;44854;50.838;4.438;2023-01-19T12:40:25;4.60;99.90
59067;DHT22;44854;50.838;4.438;2023-01-19T12:42:56;4.60;99.90
59067;DHT22;44854;50.838;4.438;2023-01-19T12:45:22;4.50;99.90
59067;DHT22;44854;50.838;4.438;2023-01-19T12:47:53;4.60;99.90
59067;DHT22;44854;50.838;4.438;2023-01-19T12:50:18;4.70;99.90
59067;DHT22;44854;50.838;4.438;2023-01-19T12:52:54;4.70;99.90
59067;DHT22;44854;50.838;4.438;2023-01-19T12:57:57;4.70;99.90
59067;DHT22;44854;50.838;4.438;2023-01-19T13:13:17;4.90;99.90
59067;DHT22;44854;50.838;4.438;2023-01-19T13:15:43;4.90;99.90
59067;DHT22;44854;50.838;4.438;2023-01-19T13:18:09;4.90;99.90
59067;DHT22;44854;50.838;4.438;2023-01-19T13:20:45;5.10;99.90
59067;DHT22;44854;50.838;4.438;2023-01-19T13:23:21;5.00;99.90
59067;DHT22;44854;50.838;4.438;2023-01-19T13:26:21;5.00;99.90
59067;DHT22;44854;50.838;4.438;2023-01-19T13:28:42;5.10;99.90
59067;DHT22;44854;50.838;4.438;2023-01-19T13:31:09;5.20;99.90
59067;DHT22;44854;50.838;4.438;2023-01-19T13:33:42;5.20;99.90
59067;DHT22;44854;50.838;4.438;2023-01-19T13:36:18;5.10;99.90
59067;DHT22;44854;50.838;4.438;2023-01-19T13:38:45;5.10;99.90
59067;DHT22;44854;50.838;4.438;2023-01-19T13:41:13;5.00;99.90
59067;DHT22;44854;50.838;4.438;2023-01-19T13:43:40;4.90;99.90
59067;DHT22;44854;50.838;4.438;2023-01-19T13:46:08;4.90;99.90
59067;DHT22;44854;50.838;4.438;2023-01-19T13:48:35;4.90;99.90
59067;DHT22;44854;50.838;4.438;2023-01-19T13:51:02;5.00;99.90
59067;DHT22;44854;50.838;4.438;2023-01-19T13:53:28;5.20;99.90
59067;DHT22;44854;50.838;4.438;2023-01-19T13:56:07;5.30;99.90
59067;DHT22;44854;50.838;4.438;2023-01-19T13:58:33;5.10;99.90
59067;DHT22;44854;50.838;4.438;2023-01-19T14:00:59;5.10;99.90
59067;DHT22;44854;50.838;4.438;2023-01-19T14:03:25;5.10;99.90
59067;DHT22;44854;50.838;4.438;2023-01-19T14:05:51;5.00;99.90
59067;DHT22;44854;50.838;4.438;2023-01-19T14:08:18;5.00;99.90
59067;DHT22;44854;50.838;4.438;2023-01-19T14:15:38;5.30;99.90
59067;DHT22;44854;50.838;4.438;2023-01-19T14:18:08;5.30;99.90
59067;DHT22;44854;50.838;4.438;2023-01-19T14:20:34;5.40;99.90
59067;DHT22;44854;50.838;4.438;2023-01-19T14:23:03;5.50;99.90
59067;DHT22;44854;50.838;4.438;2023-01-19T14:25:31;5.40;99.90
59067;DHT22;44854;50.838;4.438;2023-01-19T14:30:51;5.30;99.90
59067;DHT22;44854;50.838;4.438;2023-01-19T14:33:39;5.40;99.90
59067;DHT22;44854;50.838;4.438;2023-01-19T14:36:24;5.50;99.90
59067;DHT22;44854;50.838;4.438;2023-01-19T14:38:51;5.50;99.90
59067;DHT22;44854;50.838;4.438;2023-01-19T14:41:24;5.40;99.90
59067;DHT22;44854;50.838;4.438;2023-01-19T14:43:51;5.30;99.90
59067;DHT22;44854;50.838;4.438;2023-01-19T14:46:16;5.20;99.90
59067;DHT22;44854;50.838;4.438;2023-01-19T14:48:49;5.20;99.90
59067;DHT22;44854;50.838;4.438;2023-01-19T14:51:16;5.20;99.90
59067;DHT22;44854;50.838;4.438;2023-01-19T14:53:45;5.10;99.90
59067;DHT22;44854;50.838;4.438;2023-01-19T14:56:12;5.20;99.90
59067;DHT22;44854;50.838;4.438;2023-01-19T14:58:47;5.10;99.90
59067;DHT22;44854;50.838;4.438;2023-01-19T15:01:13;5.10;99.90
59067;DHT22;44854;50.838;4.438;2023-01-19T15:03:38;5.00;99.90
59067;DHT22;44854;50.838;4.438;2023-01-19T15:06:04;5.10;99.90
59067;DHT22;44854;50.838;4.438;2023-01-19T15:08:30;5.10;99.90
59067;DHT22;44854;50.838;4.438;2023-01-19T15:10:57;5.10;99.90
59067;DHT22;44854;50.838;4.438;2023-01-19T15:13:25;5.00;99.90
59067;DHT22;44854;50.838;4.438;2023-01-19T15:15:51;5.10;99.90
59067;DHT22;44854;50.838;4.438;2023-01-19T15:18:18;5.20;99.90
59067;DHT22;44854;50.838;4.438;2023-01-19T15:20:45;5.10;99.90
59067;DHT22;44854;50.838;4.438;2023-01-19T15:23:11;5.00;99.90
59067;DHT22;44854;50.838;4.438;2023-01-19T15:25:36;5.10;99.90
59067;DHT22;44854;50.838;4.438;2023-01-19T15:28:16;5.00;99.90
59067;DHT22;44854;50.838;4.438;2023-01-19T15:30:42;5.10;99.90
59067;DHT22;44854;50.838;4.438;2023-01-19T15:33:11;5.10;99.90
59067;DHT22;44854;50.838;4.438;2023-01-19T15:35:41;5.00;99.90
59067;DHT22;44854;50.838;4.438;2023-01-19T15:38:06;4.90;99.90
59067;DHT22;44854;50.838;4.438;2023-01-19T15:40:32;4.90;99.90
59067;DHT22;44854;50.838;4.438;2023-01-19T15:42:58;4.90;99.90
59067;DHT22;44854;50.838;4.438;2023-01-19T15:45:33;4.70;99.90
59067;DHT22;44854;50.838;4.438;2023-01-19T15:48:00;4.60;99.90
59067;DHT22;44854;50.838;4.438;2023-01-19T15:50:26;4.60;99.90
59067;DHT22;44854;50.838;4.438;2023-01-19T15:52:52;4.80;99.90
59067;DHT22;44854;50.838;4.438;2023-01-19T15:55:17;4.70;99.90
59067;DHT22;44854;50.838;4.438;2023-01-19T15:57:43;4.80;99.90
59067;DHT22;44854;50.838;4.438;2023-01-19T16:00:09;4.70;99.90
59067;DHT22;44854;50.838;4.438;2023-01-19T16:02:35;4.50;99.90
59067;DHT22;44854;50.838;4.438;2023-01-19T16:05:00;4.40;99.90
59067;DHT22;44854;50.838;4.438;2023-01-19T16:07:26;4.40;99.90
59067;DHT22;44854;50.838;4.438;2023-01-19T16:09:52;4.40;99.90
59067;DHT22;44854;50.838;4.438;2023-01-19T16:12:17;4.40;99.90
59067;DHT22;44854;50.838;4.438;2023-01-19T16:14:43;4.50;99.90
59067;DHT22;44854;50.838;4.438;2023-01-19T16:17:09;4.50;99.90
59067;DHT22;44854;50.838;4.438;2023-01-19T16:19:34;4.60;99.90
59067;DHT22;44854;50.838;4.438;2023-01-19T16:22:00;4.60;99.90
59067;DHT22;44854;50.838;4.438;2023-01-19T16:24:25;4.70;99.90
59067;DHT22;44854;50.838;4.438;2023-01-19T16:26:51;4.60;99.90
59067;DHT22;44854;50.838;4.438;2023-01-19T16:29:16;4.40;99.90
59067;DHT22;44854;50.838;4.438;2023-01-19T16:31:42;4.30;99.90
59067;DHT22;44854;50.838;4.438;2023-01-19T16:34:08;4.30;99.90
59067;DHT22;44854;50.838;4.438;2023-01-19T16:36:34;4.20;99.90
59067;DHT22;44854;50.838;4.438;2023-01-19T16:39:01;4.20;99.90
59067;DHT22;44854;50.838;4.438;2023-01-19T16:41:26;4.30;99.90
59067;DHT22;44854;50.838;4.438;2023-01-19T16:43:53;4.30;99.90
59067;DHT22;44854;50.838;4.438;2023-01-19T16:46:22;4.20;99.90
59067;DHT22;44854;50.838;4.438;2023-01-19T16:48:48;4.10;99.90
59067;DHT22;44854;50.838;4.438;2023-01-19T16:51:14;4.00;99.90
59067;DHT22;44854;50.838;4.438;2023-01-19T16:53:39;4.00;99.90
59067;DHT22;44854;50.838;4.438;2023-01-19T16:56:14;3.90;99.90
59067;DHT22;44854;50.838;4.438;2023-01-19T16:58:40;3.80;99.90
59067;DHT22;44854;50.838;4.438;2023-01-19T17:01:07;3.80;99.90
59067;DHT22;44854;50.838;4.438;2023-01-19T17:03:32;3.90;99.90
59067;DHT22;44854;50.838;4.438;2023-01-19T17:05:58;3.90;99.90
59067;DHT22;44854;50.838;4.438;2023-01-19T17:08:23;3.90;99.90
59067;DHT22;44854;50.838;4.438;2023-01-19T17:10:49;3.90;99.90
59067;DHT22;44854;50.838;4.438;2023-01-19T17:13:15;3.90;99.90
59067;DHT22;44854;50.838;4.438;2023-01-19T17:15:40;3.80;99.90
59067;DHT22;44854;50.838;4.438;2023-01-19T17:18:06;3.80;99.90
59067;DHT22;44854;50.838;4.438;2023-01-19T17:20:32;3.80;99.90
59067;DHT22;44854;50.838;4.438;2023-01-19T17:22:58;3.70;99.90
59067;DHT22;44854;50.838;4.438;2023-01-19T17:25:24;3.70;99.90
59067;DHT22;44854;50.838;4.438;2023-01-19T17:27:49;3.70;99.90
59067;DHT22;44854;50.838;4.438;2023-01-19T17:30:15;3.70;99.90
59067;DHT22;44854;50.838;4.438;2023-01-19T17:32:41;3.70;99.90
59067;DHT22;44854;50.838;4.438;2023-01-19T17:35:07;3.60;99.90
59067;DHT22;44854;50.838;4.438;2023-01-19T17:37:32;3.70;99.90
59067;DHT22;44854;50.838;4.438;2023-01-19T17:39:58;3.70;99.90
59067;DHT22;44854;50.838;4.438;2023-01-19T17:42:24;3.70;99.90
59067;DHT22;44854;50.838;4.438;2023-01-19T17:44:49;3.60;99.90
59067;DHT22;44854;50.838;4.438;2023-01-19T17:47:15;3.60;99.90
59067;DHT22;44854;50.838;4.438;2023-01-19T17:49:40;3.60;99.90
59067;DHT22;44854;50.838;4.438;2023-01-19T17:52:06;3.60;99.90
59067;DHT22;44854;50.838;4.438;2023-01-19T17:54:31;3.60;99.90
59067;DHT22;44854;50.838;4.438;2023-01-19T17:56:58;3.50;99.90
59067;DHT22;44854;50.838;4.438;2023-01-19T17:59:23;3.60;99.90
59067;DHT22;44854;50.838;4.438;2023-01-19T18:01:49;3.50;99.90
59067;DHT22;44854;50.838;4.438;2023-01-19T18:04:14;3.60;99.90
59067;DHT22;44854;50.838;4.438;2023-01-19T18:06:40;3.60;99.90
59067;DHT22;44854;50.838;4.438;2023-01-19T18:09:06;3.70;99.90
59067;DHT22;44854;50.838;4.438;2023-01-19T18:11:31;3.60;99.90
59067;DHT22;44854;50.838;4.438;2023-01-19T18:13:57;3.50;99.90
59067;DHT22;44854;50.838;4.438;2023-01-19T18:16:26;3.50;99.90
59067;DHT22;44854;50.838;4.438;2023-01-19T18:18:52;3.40;99.90
59067;DHT22;44854;50.838;4.438;2023-01-19T18:21:18;3.40;99.90
59067;DHT22;44854;50.838;4.438;2023-01-19T18:23:46;3.50;99.90
59067;DHT22;44854;50.838;4.438;2023-01-19T18:26:13;3.50;99.90
59067;DHT22;44854;50.838;4.438;2023-01-19T18:28:39;3.50;99.90
59067;DHT22;44854;50.838;4.438;2023-01-19T18:31:05;3.50;99.90
59067;DHT22;44854;50.838;4.438;2023-01-19T18:33:31;3.50;99.90
59067;DHT22;44854;50.838;4.438;2023-01-19T18:35:58;3.40;99.90
59067;DHT22;44854;50.838;4.438;2023-01-19T18:38:24;3.40;99.90
59067;DHT22;44854;50.838;4.438;2023-01-19T18:40:58;3.50;99.90
59067;DHT22;44854;50.838;4.438;2023-01-19T18:43:24;3.40;99.90
59067;DHT22;44854;50.838;4.438;2023-01-19T18:45:49;3.40;99.90
59067;DHT22;44854;50.838;4.438;2023-01-19T18:48:15;3.30;99.90
59067;DHT22;44854;50.838;4.438;2023-01-19T18:50:40;3.30;99.90
59067;DHT22;44854;50.838;4.438;2023-01-19T18:53:07;3.20;99.90
59067;DHT22;44854;50.838;4.438;2023-01-19T18:55:32;3.20;99.90
59067;DHT22;44854;50.838;4.438;2023-01-19T18:57:58;3.30;99.90
59067;DHT22;44854;50.838;4.438;2023-01-19T19:00:23;3.30;99.90
59067;DHT22;44854;50.838;4.438;2023-01-19T19:02:50;3.30;99.90
59067;DHT22;44854;50.838;4.438;2023-01-19T19:05:17;3.30;99.90
59067;DHT22;44854;50.838;4.438;2023-01-19T19:07:43;3.20;99.90
59067;DHT22;44854;50.838;4.438;2023-01-19T19:10:08;3.20;99.90
59067;DHT22;44854;50.838;4.438;2023-01-19T19:12:34;3.20;99.90
59067;DHT22;44854;50.838;4.438;2023-01-19T19:15:00;3.20;99.90
59067;DHT22;44854;50.838;4.438;2023-01-19T19:17:25;3.20;99.90
59067;DHT22;44854;50.838;4.438;2023-01-19T19:19:51;3.30;99.90
59067;DHT22;44854;50.838;4.438;2023-01-19T19:22:16;3.30;99.90
59067;DHT22;44854;50.838;4.438;2023-01-19T19:24:42;3.30;99.90
59067;DHT22;44854;50.838;4.438;2023-01-19T19:27:07;3.30;99.90
59067;DHT22;44854;50.838;4.438;2023-01-19T19:29:38;3.30;99.90
59067;DHT22;44854;50.838;4.438;2023-01-19T19:32:04;3.30;99.90
59067;DHT22;44854;50.838;4.438;2023-01-19T19:34:29;3.30;99.90
59067;DHT22;44854;50.838;4.438;2023-01-19T19:36:55;3.30;99.90
59067;DHT22;44854;50.838;4.438;2023-01-19T19:39:21;3.30;99.90
59067;DHT22;44854;50.838;4.438;2023-01-19T19:41:46;3.30;99.90
59067;DHT22;44854;50.838;4.438;2023-01-19T19:44:12;3.30;99.90
59067;DHT22;44854;50.838;4.438;2023-01-19T19:46:38;3.30;99.90
59067;DHT22;44854;50.838;4.438;2023-01-19T19:49:05;3.30;99.90
59067;DHT22;44854;50.838;4.438;2023-01-19T19:51:31;3.20;99.90
59067;DHT22;44854;50.838;4.438;2023-01-19T19:53:57;3.10;99.90
59067;DHT22;44854;50.838;4.438;2023-01-19T19:56:24;3.10;99.90
59067;DHT22;44854;50.838;4.438;2023-01-19T19:58:50;3.00;99.90
59067;DHT22;44854;50.838;4.438;2023-01-19T20:01:16;3.00;99.90
59067;DHT22;44854;50.838;4.438;2023-01-19T20:03:42;3.00;99.90
59067;DHT22;44854;50.838;4.438;2023-01-19T20:06:12;3.00;99.90
59067;DHT22;44854;50.838;4.438;2023-01-19T20:08:37;3.00;99.90
59067;DHT22;44854;50.838;4.438;2023-01-19T20:11:13;3.00;99.90
59067;DHT22;44854;50.838;4.438;2023-01-19T20:13:40;2.90;99.90
59067;DHT22;44854;50.838;4.438;2023-01-19T20:16:07;2.90;99.90
59067;DHT22;44854;50.838;4.438;2023-01-19T20:18:35;2.90;99.90
59067;DHT22;44854;50.838;4.438;2023-01-19T20:21:07;2.80;99.90
59067;DHT22;44854;50.838;4.438;2023-01-19T20:23:34;2.70;99.90
59067;DHT22;44854;50.838;4.438;2023-01-19T20:26:02;2.70;99.90
59067;DHT22;44854;50.838;4.438;2023-01-19T20:28:28;2.70;99.90
59067;DHT22;44854;50.838;4.438;2023-01-19T20:30:53;2.70;99.90
59067;DHT22;44854;50.838;4.438;2023-01-19T20:33:19;2.80;99.90
59067;DHT22;44854;50.838;4.438;2023-01-19T20:35:45;2.80;99.90
59067;DHT22;44854;50.838;4.438;2023-01-19T20:38:10;2.90;99.90
59067;DHT22;44854;50.838;4.438;2023-01-19T20:40:36;2.90;99.90
59067;DHT22;44854;50.838;4.438;2023-01-19T20:43:01;3.00;99.90
59067;DHT22;44854;50.838;4.438;2023-01-19T20:45:27;3.00;99.90
59067;DHT22;44854;50.838;4.438;2023-01-19T20:47:52;3.10;99.90
59067;DHT22;44854;50.838;4.438;2023-01-19T20:50:18;3.10;99.90
59067;DHT22;44854;50.838;4.438;2023-01-19T20:52:44;3.20;99.90
59067;DHT22;44854;50.838;4.438;2023-01-19T20:55:10;3.30;99.90
59067;DHT22;44854;50.838;4.438;2023-01-19T20:57:37;3.20;99.90
59067;DHT22;44854;50.838;4.438;2023-01-19T21:00:03;3.20;99.90
59067;DHT22;44854;50.838;4.438;2023-01-19T21:02:28;3.20;99.90
59067;DHT22;44854;50.838;4.438;2023-01-19T21:04:54;3.20;99.90
59067;DHT22;44854;50.838;4.438;2023-01-19T21:07:19;3.20;99.90
59067;DHT22;44854;50.838;4.438;2023-01-19T21:09:45;3.20;99.90
59067;DHT22;44854;50.838;4.438;2023-01-19T21:12:11;3.10;99.90
59067;DHT22;44854;50.838;4.438;2023-01-19T21:14:39;3.00;99.90
59067;DHT22;44854;50.838;4.438;2023-01-19T21:17:06;3.00;99.90
59067;DHT22;44854;50.838;4.438;2023-01-19T21:19:32;3.00;99.90
59067;DHT22;44854;50.838;4.438;2023-01-19T21:21:57;3.10;99.90
59067;DHT22;44854;50.838;4.438;2023-01-19T21:24:23;3.10;99.90
59067;DHT22;44854;50.838;4.438;2023-01-19T21:26:49;3.20;99.90
59067;DHT22;44854;50.838;4.438;2023-01-19T21:29:14;3.30;99.90
59067;DHT22;44854;50.838;4.438;2023-01-19T21:31:40;3.30;99.90
59067;DHT22;44854;50.838;4.438;2023-01-19T21:34:05;3.20;99.90
59067;DHT22;44854;50.838;4.438;2023-01-19T21:36:31;3.10;99.90
59067;DHT22;44854;50.838;4.438;2023-01-19T21:38:56;3.10;99.90
59067;DHT22;44854;50.838;4.438;2023-01-19T21:41:24;3.00;99.90
59067;DHT22;44854;50.838;4.438;2023-01-19T21:43:50;3.00;99.90
59067;DHT22;44854;50.838;4.438;2023-01-19T21:46:17;2.90;99.90
59067;DHT22;44854;50.838;4.438;2023-01-19T21:48:43;3.00;99.90
59067;DHT22;44854;50.838;4.438;2023-01-19T21:51:10;3.00;99.90
59067;DHT22;44854;50.838;4.438;2023-01-19T21:53:36;3.00;99.90
59067;DHT22;44854;50.838;4.438;2023-01-19T21:56:03;3.10;99.90
59067;DHT22;44854;50.838;4.438;2023-01-19T21:58:29;3.00;99.90
59067;DHT22;44854;50.838;4.438;2023-01-19T22:01:01;2.90;99.90
59067;DHT22;44854;50.838;4.438;2023-01-19T22:03:27;2.90;99.90
59067;DHT22;44854;50.838;4.438;2023-01-19T22:05:53;2.90;99.90
59067;DHT22;44854;50.838;4.438;2023-01-19T22:08:20;2.80;99.90
59067;DHT22;44854;50.838;4.438;2023-01-19T22:10:46;2.70;99.90
59067;DHT22;44854;50.838;4.438;2023-01-19T22:13:11;2.70;99.90
59067;DHT22;44854;50.838;4.438;2023-01-19T22:15:37;2.70;99.90
59067;DHT22;44854;50.838;4.438;2023-01-19T22:18:02;2.70;99.90
59067;DHT22;44854;50.838;4.438;2023-01-19T22:20:28;2.60;99.90
59067;DHT22;44854;50.838;4.438;2023-01-19T22:22:54;2.70;99.90
59067;DHT22;44854;50.838;4.438;2023-01-19T22:25:20;2.90;99.90
59067;DHT22;44854;50.838;4.438;2023-01-19T22:27:48;2.90;99.90
59067;DHT22;44854;50.838;4.438;2023-01-19T22:30:14;3.00;99.90
59067;DHT22;44854;50.838;4.438;2023-01-19T22:32:40;2.90;99.90
59067;DHT22;44854;50.838;4.438;2023-01-19T22:35:05;2.90;99.90
59067;DHT22;44854;50.838;4.438;2023-01-19T22:37:34;3.00;99.90
59067;DHT22;44854;50.838;4.438;2023-01-19T22:40:01;3.10;99.90
59067;DHT22;44854;50.838;4.438;2023-01-19T22:42:26;3.10;99.90
59067;DHT22;44854;50.838;4.438;2023-01-19T22:44:52;3.00;99.90
59067;DHT22;44854;50.838;4.438;2023-01-19T22:47:17;3.00;99.90
59067;DHT22;44854;50.838;4.438;2023-01-19T22:49:43;3.00;99.90
59067;DHT22;44854;50.838;4.438;2023-01-19T22:52:08;3.10;99.90
59067;DHT22;44854;50.838;4.438;2023-01-19T22:54:34;3.10;99.90
59067;DHT22;44854;50.838;4.438;2023-01-19T22:57:00;3.20;99.90
59067;DHT22;44854;50.838;4.438;2023-01-19T22:59:25;3.20;99.90